Sled Dog Central Your on-line sled dog advertising & information source! top
Sled Dog Central Home Page Current Classifieds Advertise on SDC Race Info Search Site Index Contact Us
 

Plum Creek Wilderness Sled Dog Race
Greenville, Maine, USA

February 1, 2014

Return to USA East Race Results List

Results provided by Amy Dugan, Wilderness Sled Dog Racing Association

Conditions: 
Fast hard trail mostly sunny with temps in the mid 20's.

12 Dog | 8 Dog

Place Name 1st Leg 2nd Leg Total Time
12 Dog (100 miles)
1 Martin Massicotte 4:22:08 4:48:31 9:10:39
2 Don Hibbs 4:27:45 4:59:18 9:27:03
3 Baily Cross Vitello 4:41:00 5:37:30 10:18:30
4 Andre Longchamps 4:49:20 5:34:14 10:23:34
5 Amelie Aubut 4:51:30 5:32:09 10:23:39
6 Steve Crone 4:52:55 5:51:41 10:44:36
7 Sally Manikian  5:28.25 5:38:19 11:06:44
8 Becki Tucker  5:36:00 6:13:49 11:49:49
9 Gino Roussel 5:44:30 6:45:28 12:29:58
  Ashley Patterson 4:26:48 DNF   
8 Dog (30 miles)
1 Amy Dionne 2:14:50   2:14:50
2 Amy DeWolski 2:15:20   2:15:20
3 Peter Franke 2:26:13   2:26:13
4 Mark Patterson 2:27:46   2:27:46
5 Holly Dionne 2:33:16   2:33:16
6 Dave Punch 2:44:02   2:44:02
7 Spencer Thew 2:46:21   2:46:21
8 Caroline Blair-Smith 3:01:47   3:01:47
9 Ingrid Bower 3:10:57   3:10:57
10 Lilly Anderson 3:21:43   3:21:43
11 Heather D-Arcy 3:47:56   3:47:56
12 Sean Pfan 4:02:21   4:02:21
13 Nick Van Drimmelen 4:24:39   4:24:39

Back to Top

Copyright 1997-2016 Sled Dog Central, all rights reserved.
Email Sled Dog Central